Sonora, CA (95370)

1:29 PM PST on December 22, 2014 (GMT -0800)
Meyers Hill (Downtown) | Change Station
CLOSE
Current Station
Personal Weather Station
Location: Sonora, CA
Elevation: 1912 ft
Nearby Weather Stations

Elev 1912 ft 37.99 °N, 120.38 °W | Updated 3 seconds ago

Clear
Clear
60.6 °F
Feels Like 60.6 °F
N
6.9
Wind Variable Wind from NNW
Gusts 6.9 mph

Today
High -- | Low -- °F
--% Chance of Precip.
Yesterday
High -- | Low -- °F
Precip. -- in
7:14 AM 4:45 PM
New Moon, 1% visible
Pressure 30.17 in
Visibility 10.0 miles
Clouds Clear
Dew Point 53 °F
Humidity 77%
Rainfall 0.00 in
Snow Depth Not available.
UV 2 out of 12
Pollen 5.30 out of 12
Air Quality Not available.
Flu Activity Not available.
METAR KO22 222115Z AUTO 27005KT 10SM CLR 16/10 A3017 RMK AO1

More Conditions Fewer Conditions

Pressure 30.17 in
Visibility 10.0 miles
Clouds Clear
Dew Point 53 °F
Humidity 77%
Rainfall 0.00 in
Snow Depth Not available.
UV 2 out of 12
Pollen 5.30 out of 12
Air Quality Not available.
Flu Activity Not available.
METAR KO22 222115Z AUTO 27005KT 10SM CLR 16/10 A3017 RMK AO1

More Conditions Fewer Conditions

10-Day Weather Forecast

Almanac

Astronomy

Dec. 22, 2014 Rise Set
Actual Time
Civil Twilight
Nautical Twilight
Astronomical Twilight
Moon
Length of Visible Light
Length of Day
Tomorrow will be .
, % of the Moon is Illuminated

Today's Extremes

State Highs State Lows

Community

WunderPhotos

Upload Photos

1,779,682 photos uploaded!

WunderBlogs® & News

Nearby

Air Quality

  Air Quality AQ Index Pollutant
Not available.

Snow Depth

Station Depth Elevation

Earthquake Activity

City Distance Mag. Time & Date
Minimum magnitude displayed is 2.5.

Coastal Water Temperatures

Place Temperature

Nearby Weather Stations